Friday, February 23, 2018, 6:42 PM GMT
Back to Local

CWVU, Brier Island, N. S.

Location: , , Canada Lat: 44.286
Local Time: 6:42 PM GMT (18:42 GMT) Lon: -66.347
Time Zone: GMT Elev: 52 ft

Show me the last for .
Show Coded

Time T Td Feel RH Dir Speed Gust Alt SLP Vis Weather Sky Remarks
2018-02-23 18:00 30 16 25 55 340° 5 - - 30.65 0 None
2018-02-23 17:00 30 16 24 54 330° 6 - - 30.70 0 None
2018-02-23 16:00 31 16 27 54 30° 3 - - 30.72 0 None
2018-02-23 15:00 30 15 23 53 20° 7 - - 30.74 0 None
2018-02-23 14:00 29 15 20 55 40° 10 - - 30.76 0 None
2018-02-23 13:00 28 14 17 56 40° 14 - - 30.77 0 None
2018-02-23 12:00 27 15 16 61 50° 13 - - 30.76 0 Peak wind: 24 mph (21 kts) from 10° at 02 min
2018-02-23 11:00 27 18 14 68 10° 18 - - 30.74 0 Peak wind: 26 mph (23 kts) from 10° at 07 min
2018-02-23 09:00 27 15 12 58 350° 26 - - 30.72 0 Peak wind: 31 mph (27 kts) from 350° at 55 min
2018-02-23 08:00 29 17 14 61 350° 22 28 - 30.73 0 Peak wind: 28 mph (25 kts) from 350° at 36 min
2018-02-23 07:00 29 15 16 54 350° 22 - - 30.72 0 Peak wind: 27 mph (24 kts) from 340° at 37 min
2018-02-23 06:00 30 17 17 56 340° 21 - - - 0 Peak wind: 25 mph (22 kts) from 340° at 26 min
2018-02-23 05:00 30 16 16 54 350° 21 26 - - 0 Peak wind: 26 mph (23 kts) from 340° at 56 min
2018-02-23 04:00 31 16 18 52 340° 20 - - - 0 Peak wind: 26 mph (23 kts) from 340° at 41 min
2018-02-23 03:00 31 17 19 56 340° 18 - - - 0 Peak wind: 24 mph (21 kts) from 340° at 05 min
2018-02-23 02:00 31 16 19 52 340° 18 - - - 0 Peak wind: 24 mph (21 kts) from 340° at 29 min
2018-02-23 01:00 33 15 21 46 330° 20 - - - 0 Peak wind: 25 mph (22 kts) from 320° at 42 min
2018-02-23 00:00 33 17 22 51 330° 16 - - - 0 Peak wind: 23 mph (20 kts) from 320° at 00 min
2018-02-22 23:00 31 16 19 53 330° 18 - - - 0 Peak wind: 26 mph (23 kts) from 320° at 21 min
2018-02-22 22:00 31 17 18 55 320° 21 - - - 0 Peak wind: 26 mph (23 kts) from 320° at 36 min
2018-02-22 21:00 31 16 18 53 330° 16 23 - - 0 Peak wind: 23 mph (20 kts) from 320° at 50 min
2018-02-22 20:00 31 17 20 55 320° 16 - - - 0 Peak wind: 20 mph (18 kts) from 320° at 01 min
2018-02-22 19:00 33 19 22 54 320° 18 - - - 0 Peak wind: 23 mph (20 kts) from 330° at 10 min

Support USWX by starting your Amazon purchase here.